• Join FlightAware (Why Join?)
  • Login
  • US Flag 
11:27AM EST


 

Airport Tracker/Info


-or-


 

Live Flight TrackerFlight Track Log ✈ N953QS ✈ 26-Apr-2012 ✈ KOMA - KILG

Flight Track Log - Related Links

Times and Time Zones

All times are in EDT time to prevent confusion due to time zone crossing. See the N953QS flight status page for this flight to view local times or setup timezone preferences in your user account.

Time Position Orientation Groundspeed Altitude Reporting Facility
EDT Latitude Longitude Course Direction KTS MPH feet Rate Location/Type
07:25AM 41.3219 -95.9142 10° North 158 182 2,300  Level Minneapolis Center
07:25AM 41.3617 -95.9047 11° North 265 305 4,300 2,700 Climbing Minneapolis Center
07:26AM 41.4286 -95.8881 75° East 265 305 6,900 2,700 Climbing Minneapolis Center
07:27AM 41.4472 -95.7919 117° Southeast 217 250 9,700 2,220 Climbing Minneapolis Center
07:28AM 41.4019 -95.6742 102° East 261 300 11,400 1,560 Climbing Minneapolis Center
07:29AM 41.3797 -95.5353 87° East 297 342 12,900 1,440 Climbing Minneapolis Center
07:30AM 41.3842 -95.4083 88° East 357 411 14,300 1,500 Climbing Minneapolis Center
07:31AM 41.3889 -95.2536 87° East 386 444 15,900 1,680 Climbing Minneapolis Center
07:32AM 41.3956 -95.0964 87° East 408 470 17,700 1,680 Climbing Minneapolis Center
07:33AM 41.4019 -94.9364 87° East 426 490 19,300 1,560 Climbing Minneapolis Center
07:34AM 41.4083 -94.7733 88° East 431 496 20,900 1,620 Climbing Minneapolis Center
07:35AM 41.4122 -94.6050 87° East 444 511 22,600 1,680 Climbing Minneapolis Center
07:36AM 41.4183 -94.4281 88° East 454 522 24,300 1,560 Climbing Minneapolis Center
07:37AM 41.4239 -94.2458 88° East 474 545 25,800 1,680 Climbing Minneapolis Center
07:40AM 41.4344 -93.8539 89° East 505 581 29,600 1,740 Climbing Chicago Center
07:41AM 41.4378 -93.6603 86° East 512 589 31,300 1,860 Climbing Chicago Center
07:42AM 41.4469 -93.4642 86° East 524 603 33,400 2,220 Climbing Chicago Center
07:43AM 41.4561 -93.2678 86° East 524 603 35,800 2,040 Climbing Chicago Center
07:44AM 41.4669 -93.0689 87° East 524 603 37,500 1,680 Climbing Chicago Center
07:45AM 41.4750 -92.8781 89° East 524 603 39,200 1,500 Climbing Chicago Center
07:46AM 41.4767 -92.6842 93° East 524 603 40,500 900 Climbing Chicago Center
07:47AM 41.4694 -92.4897 92° East 518 596 41,000 240 Climbing Chicago Center
07:48AM 41.4644 -92.2844 93° East 536 617 41,000  Level Chicago Center
07:49AM 41.4572 -92.0792 92° East 550 633 41,000  Level Chicago Center
07:50AM 41.4514 -91.8711 91° East 556 640 41,000  Level Chicago Center
07:51AM 41.4475 -91.6631 92° East 556 640 41,000  Level Chicago Center
07:52AM 41.4411 -91.4550 93° East 556 640 41,000  Level Chicago Center
07:53AM 41.4342 -91.2528 93° East 556 640 41,000  Level Chicago Center
07:54AM 41.4269 -91.0447 93° East 556 640 41,000  Level Chicago Center
07:55AM 41.4194 -90.8342 94° East 556 640 41,000  Level Chicago Center
07:56AM 41.4094 -90.6289 93° East 561 646 41,000  Level Chicago Center
07:57AM 41.4014 -90.4156 93° East 561 646 41,000  Level Chicago Center
07:58AM 41.3925 -90.2081 94° East 561 646 41,000  Level Chicago Center
07:59AM 41.3817 -89.9808 93° East 556 640 41,000  Level Chicago Center
08:00AM 41.3722 -89.7733 94° East 556 640 41,000  Level Chicago Center
08:01AM 41.3622 -89.5656 94° East 556 640 41,000  Level Chicago Center
08:02AM 41.3519 -89.3608 95° East 561 646 41,000  Level Chicago Center
08:03AM 41.3394 -89.1619 94° East 553 636 41,000  Level Chicago Center
08:04AM 41.3283 -88.9517 94° East 553 636 41,000  Level Chicago Center
08:05AM 41.3169 -88.7472 94° East 558 642 41,000  Level Chicago Center
08:06AM 41.3053 -88.5400 95° East 558 642 41,000  Level Chicago Center
08:07AM 41.2911 -88.3386 96° East 558 642 41,000  Level Chicago Center
08:08AM 41.2747 -88.1369 94° East 558 642 41,000  Level Chicago Center
08:09AM 41.2642 -87.9411 93° East 565 650 41,000  Level Chicago Center
08:10AM 41.2553 -87.7397 95° East 565 650 41,000  Level Chicago Center
08:11AM 41.2417 -87.5356 95° East 559 643 41,000  Level Chicago Center
08:12AM 41.2278 -87.3317 95° East 554 638 41,000  Level Chicago Center
08:13AM 41.2136 -87.1222 95° East 559 643 41,000  Level Chicago Center
08:14AM 41.1989 -86.9186 96° East 559 643 41,000  Level Chicago Center
08:15AM 41.1839 -86.7150 95° East 559 643 41,000  Level Chicago Center
08:16AM 41.1706 -86.5058 98° East 559 643 41,000  Level Chicago Center
08:17AM 41.1511 -86.3136 95° East 549 632 41,000  Level Chicago Center
08:18AM 41.1369 -86.0992 96° East 561 646 41,000  Level Chicago Center
08:19AM 41.1203 -85.8933 96° East 561 646 41,000  Level Chicago Center
08:20AM 41.1033 -85.6847 97° East 565 650 41,000  Level Chicago Center
08:21AM 41.0836 -85.4625 96° East 565 650 41,000  Level Chicago Center
08:23AM 41.0472 -85.0467 96° East 539 620 41,000  Level Cleveland Center
08:24AM 41.0303 -84.8364 97° East 558 642 41,000  Level Cleveland Center
08:25AM 41.0106 -84.6314 97° East 568 654 41,000  Level Cleveland Center
08:26AM 40.9906 -84.4264 97° East 562 647 41,000  Level Cleveland Center
08:27AM 40.9736 -84.2411 98° East 567 652 41,000  Level Cleveland Center
08:28AM 40.9528 -84.0364 98° East 563 648 41,000  Level Cleveland Center
08:29AM 40.9319 -83.8292 97° East 568 654 41,000  Level Cleveland Center
08:30AM 40.9125 -83.6222 98° East 568 654 41,000  Level Cleveland Center
08:31AM 40.8908 -83.4150 98° East 568 654 41,000  Level Cleveland Center
08:32AM 40.8686 -83.2081 99° East 563 648 41,000  Level Cleveland Center
08:33AM 40.8439 -83.0067 98° East 563 648 41,000  Level Cleveland Center
08:34AM 40.8211 -82.7972 99° East 563 648 41,000  Level Cleveland Center
08:35AM 40.7978 -82.5964 97° East 557 641 41,000  Level Cleveland Center
08:36AM 40.7783 -82.3928 99° East 557 641 41,000  Level Cleveland Center
08:37AM 40.7542 -82.1894 99° East 563 648 41,000  Level Cleveland Center
08:38AM 40.7297 -81.9858 100° East 554 638 41,000  Level Cleveland Center
08:39AM 40.7028 -81.7828 98° East 565 650 41,000  Level Cleveland Center
08:40AM 40.6800 -81.5742 99° East 565 650 41,000  Level Cleveland Center
08:41AM 40.6564 -81.3686 100° East 570 656 41,000  Level Cleveland Center
08:42AM 40.6286 -81.1631 98° East 563 648 41,000  Level Cleveland Center
08:43AM 40.6044 -80.9331 100° East 568 654 41,000  Level Cleveland Center
08:44AM 40.5778 -80.7253 100° East 573 659 41,000  Level Cleveland Center
08:45AM 40.5508 -80.5175 100° East 573 659 41,000  Level Cleveland Center
08:46AM 40.5256 -80.3344 100° East 573 659 41,000  Level Cleveland Center
08:47AM 40.4978 -80.1272 94° East 578 665 41,000 -480 Level Cleveland Center
08:48AM 40.4864 -79.9117 94° East 584 672 40,100 -1,200 Descending Cleveland Center
08:49AM 40.4767 -79.7125 91° East 576 663 38,600 -1,500 Descending Cleveland Center
08:50AM 40.4728 -79.4942 88° East 576 663 37,100 -1,500 Descending Cleveland Center
08:51AM 40.4786 -79.2783 86° East 581 669 35,600 -1,440 Descending Cleveland Center
08:52AM 40.4908 -79.0678 89° East 581 669 34,300 -1,200 Descending Cleveland Center
08:53AM 40.4939 -78.8575 97° East 581 669 33,300 -660 Descending Cleveland Center
08:54AM 40.4714 -78.6261 98° East 574 661 33,000 -1,140 Descending Cleveland Center
08:55AM 40.4492 -78.4222 98° East 579 666 31,100 -2,760 Descending Cleveland Center
08:56AM 40.4194 -78.1378 98° East 565 650 26,400 -2,880 Descending New York Center
08:57AM 40.3981 -77.9419 97° East 549 632 24,200 -1,440 Descending New York Center
08:58AM 40.3800 -77.7547 98° East 538 619 23,500 -1,320 Descending New York Center
08:59AM 40.3614 -77.5731 99° East 516 594 21,700 -1,740 Descending New York Center
09:00AM 40.3386 -77.3883 105° East 510 587 20,100 -900 Descending New York Center
09:01AM 40.3025 -77.2133 105° East 499 574 19,900 -840 Descending New York Center
09:02AM 40.2728 -77.0664 102° East 481 554 18,400 -1,560 Descending New York Center
09:03AM 40.2447 -76.8897 100° East 481 554 16,800 -1,500 Descending New York Center
09:04AM 40.2217 -76.7272 101° East 469 540 15,400 -1,500 Descending New York Center
09:05AM 40.1969 -76.5539 100° East 447 514 13,800 -1,560 Descending New York Center
09:06AM 40.1753 -76.3944 102° East 441 507 12,400 -1,500 Descending New York Center
09:07AM 40.1606 -76.3003 101° East 435 501 11,500 -1,140 Descending FAA TRACON SMA TRACON (SMA)
09:07AM 40.1458 -76.2003 98° East 385 443 11,000 -480 Descending FAA TRACON SMA TRACON (SMA)
09:08AM 40.1372 -76.1208 100° East 348 400 10,900 -540 Descending FAA TRACON SMA TRACON (SMA)
09:09AM 40.1275 -76.0475 106° East 313 360 10,300 -1,080 Descending FAA TRACON SMA TRACON (SMA)
09:09AM 40.1108 -75.9694 151° Southeast 293 337 9,500 -1,380 Descending FAA TRACON SMA TRACON (SMA)
09:10AM 40.0697 -75.9403 172° South 278 320 8,500 -1,680 Descending FAA TRACON SMA TRACON (SMA)
09:11AM 40.0175 -75.9311 172° South 271 312 7,300 -1,740 Descending FAA TRACON SMA TRACON (SMA)
09:11AM 39.9678 -75.9217 172° South 263 303 6,200 -1,680 Descending FAA TRACON SMA TRACON (SMA)
09:12AM 39.9206 -75.9133 172° South 246 283 5,100 -1,560 Descending FAA TRACON SMA TRACON (SMA)
09:13AM 39.8806 -75.9056 172° South 238 274 4,100 -1,500 Descending FAA TRACON SMA TRACON (SMA)
09:13AM 39.8372 -75.8972 172° South 230 265 3,100 -1,020 Descending FAA TRACON SMA TRACON (SMA)
09:14AM 39.8006 -75.8903 172° South 218 251 2,800 -720 Descending FAA TRACON SMA TRACON (SMA)
09:15AM 39.7608 -75.8828 172° South 210 242 2,200 -480 Descending FAA TRACON SMA TRACON (SMA)
09:15AM 39.7264 -75.8764 168° South 172 198 2,200  Level FAA TRACON SMA TRACON (SMA)
09:16AM 39.6794 -75.8636 160° South 170 196 2,200 -60 Level FAA TRACON SMA TRACON (SMA)
09:17AM 39.6503 -75.8500 95° East 167 192 2,100  Descending FAA TRACON SMA TRACON (SMA)
09:18AM 39.6478 -75.8097 79° East 200 230 2,200 60 Climbing FAA TRACON SMA TRACON (SMA)
09:18AM 39.6558 -75.7572 78° East 209 241 2,200 -420 Level FAA TRACON SMA TRACON (SMA)
09:19AM 39.6625 -75.7169 80° East 155 178 1,700 -780 Descending FAA TRACON SMA TRACON (SMA)
09:20AM 39.6669 -75.6833 78° East 143 165 1,200 -840 Descending FAA TRACON SMA TRACON (SMA)
09:20AM 39.6719 -75.6519 81° East 130 150 600 -780 Descending FAA TRACON SMA TRACON (SMA)
09:21AM 39.6753 -75.6256 81° East 183 211 200 -600 Descending FAA TRACON SMA TRACON (SMA)